createdAt,value
2023-01-26T00:01:40.799Z,24.60
2023-01-26T00:04:08.490Z,26.60
2023-01-26T00:06:36.189Z,25.60
2023-01-26T00:09:04.300Z,25.40
2023-01-26T00:11:31.930Z,24.90
2023-01-26T00:14:00.580Z,26.20
2023-01-26T00:16:28.632Z,26.80
2023-01-26T00:18:56.363Z,25.30
2023-01-26T00:21:24.508Z,27.70
2023-01-26T00:23:52.954Z,27.00
2023-01-26T00:26:23.060Z,28.50
2023-01-26T00:28:51.917Z,27.00
2023-01-26T00:31:25.131Z,27.10
2023-01-26T00:33:54.956Z,28.30
2023-01-26T00:36:22.690Z,28.40
2023-01-26T00:38:50.670Z,28.00
2023-01-26T00:41:37.132Z,29.10
2023-01-26T00:44:04.893Z,29.70
2023-01-26T00:46:32.587Z,28.90
2023-01-26T00:49:01.378Z,30.10
2023-01-26T00:51:29.171Z,28.50
2023-01-26T00:53:57.399Z,29.70
2023-01-26T00:56:27.964Z,30.10
2023-01-26T00:58:55.758Z,29.10
2023-01-26T01:01:23.517Z,29.30
2023-01-26T01:03:52.125Z,30.10
2023-01-26T01:06:19.804Z,28.90
2023-01-26T01:08:47.715Z,28.00
2023-01-26T01:11:15.426Z,30.60
2023-01-26T01:13:43.348Z,29.40
2023-01-26T01:16:13.707Z,29.80
2023-01-26T01:18:41.779Z,28.90
2023-01-26T01:21:11.450Z,27.30
2023-01-26T01:23:39.630Z,27.90
2023-01-26T01:26:07.815Z,28.60
2023-01-26T01:28:36.536Z,28.50
2023-01-26T01:31:08.998Z,27.60
2023-01-26T01:33:37.003Z,28.70
2023-01-26T01:36:14.244Z,28.90
2023-01-26T01:38:42.958Z,29.80
2023-01-26T01:41:11.456Z,30.50
2023-01-26T01:43:39.091Z,30.60
2023-01-26T01:46:25.265Z,31.00
2023-01-26T01:48:54.110Z,31.90
2023-01-26T01:51:28.036Z,30.70
2023-01-26T01:53:58.551Z,33.40
2023-01-26T01:56:27.515Z,33.50
2023-01-26T01:58:57.544Z,32.70
2023-01-26T02:01:25.533Z,34.90
2023-01-26T02:03:57.353Z,34.50
2023-01-26T02:06:36.388Z,35.70
2023-01-26T02:09:05.945Z,35.70
2023-01-26T02:11:38.796Z,36.30
2023-01-26T02:14:09.443Z,37.60
2023-01-26T02:16:39.992Z,36.60
2023-01-26T02:19:13.753Z,35.10
2023-01-26T02:21:43.668Z,37.30
2023-01-26T02:24:29.026Z,37.40
2023-01-26T02:26:57.151Z,37.00
2023-01-26T02:29:24.906Z,39.50
2023-01-26T02:31:53.749Z,36.60
2023-01-26T02:34:21.994Z,37.10
2023-01-26T02:36:58.863Z,37.10
2023-01-26T02:39:51.373Z,36.70
2023-01-26T02:42:37.994Z,39.60
2023-01-26T02:45:06.773Z,38.20
2023-01-26T02:47:34.713Z,38.60
2023-01-26T02:50:05.279Z,36.50
2023-01-26T02:52:33.780Z,34.70
2023-01-26T02:55:28.375Z,35.60
2023-01-26T02:58:04.586Z,35.20
2023-01-26T03:00:38.286Z,36.60
2023-01-26T03:03:15.316Z,34.50
2023-01-26T03:05:43.030Z,36.60
2023-01-26T03:08:10.749Z,35.80
2023-01-26T03:10:39.121Z,37.40
2023-01-26T03:13:07.489Z,38.20
2023-01-26T03:15:43.053Z,39.40
2023-01-26T03:18:33.479Z,40.40
2023-01-26T03:21:21.054Z,40.70
2023-01-26T03:24:07.575Z,40.80
2023-01-26T03:26:54.388Z,42.00
2023-01-26T03:29:22.476Z,42.60
2023-01-26T03:31:50.578Z,43.60
2023-01-26T03:34:18.881Z,43.40
2023-01-26T03:36:48.164Z,43.50
2023-01-26T03:39:34.759Z,45.60
2023-01-26T03:42:21.616Z,45.20
2023-01-26T03:45:08.077Z,45.60
2023-01-26T03:47:56.496Z,45.80
2023-01-26T03:50:44.087Z,45.40
2023-01-26T03:53:33.791Z,47.20
2023-01-26T03:56:20.955Z,46.10
2023-01-26T03:58:52.854Z,48.20
2023-01-26T04:01:26.336Z,47.80
2023-01-26T04:04:15.787Z,49.30
2023-01-26T04:07:06.182Z,46.70
2023-01-26T04:09:36.677Z,49.40
2023-01-26T04:12:04.896Z,49.80
2023-01-26T04:14:54.089Z,48.30
2023-01-26T04:17:43.519Z,49.50
2023-01-26T04:20:30.433Z,49.30
2023-01-26T04:22:58.323Z,50.90
2023-01-26T04:25:26.038Z,51.40
2023-01-26T04:27:53.839Z,47.90
2023-01-26T04:30:21.674Z,50.90
2023-01-26T04:32:51.005Z,50.60
2023-01-26T04:35:18.905Z,51.90
2023-01-26T04:37:48.460Z,53.30
2023-01-26T04:40:16.256Z,51.40
2023-01-26T04:42:44.151Z,52.60
2023-01-26T04:45:12.780Z,52.30
2023-01-26T04:47:41.143Z,53.40
2023-01-26T04:50:10.078Z,51.20
2023-01-26T04:52:38.133Z,52.10
2023-01-26T04:55:06.479Z,51.10
2023-01-26T04:57:35.453Z,51.60
2023-01-26T05:00:05.466Z,53.20
2023-01-26T05:02:33.515Z,50.40
2023-01-26T05:05:01.343Z,52.80
2023-01-26T05:07:29.521Z,53.20
2023-01-26T05:09:57.931Z,51.80
2023-01-26T05:12:38.345Z,53.00
2023-01-26T05:15:25.039Z,54.00
2023-01-26T05:18:28.185Z,52.20
2023-01-26T05:21:16.106Z,52.50
2023-01-26T05:23:48.345Z,56.70
2023-01-26T05:26:38.532Z,53.40
2023-01-26T05:29:11.873Z,56.10
2023-01-26T05:31:39.606Z,53.70
2023-01-26T05:34:07.605Z,53.80
2023-01-26T05:36:37.752Z,52.10
2023-01-26T05:39:06.032Z,54.30
2023-01-26T05:41:33.704Z,52.80
2023-01-26T05:44:25.056Z,51.20
2023-01-26T05:47:01.080Z,53.70
2023-01-26T05:49:29.807Z,52.40
2023-01-26T05:51:59.619Z,52.90
2023-01-26T05:54:27.251Z,51.70
2023-01-26T05:56:57.690Z,50.50
2023-01-26T05:59:26.554Z,51.90
2023-01-26T06:01:56.277Z,49.40
2023-01-26T06:04:24.446Z,52.90
2023-01-26T06:06:57.672Z,47.60
2023-01-26T06:09:33.595Z,48.50
2023-01-26T06:12:18.255Z,48.10
2023-01-26T06:14:58.419Z,47.40
2023-01-26T06:17:39.635Z,45.10
2023-01-26T06:20:11.289Z,44.90
2023-01-26T06:22:39.702Z,44.90
2023-01-26T06:25:07.747Z,46.10
2023-01-26T06:27:36.325Z,43.90
2023-01-26T06:30:11.888Z,43.90
2023-01-26T06:32:40.816Z,43.70
2023-01-26T06:35:09.099Z,42.00
2023-01-26T06:37:37.136Z,43.50
2023-01-26T06:40:05.544Z,42.10
2023-01-26T06:42:33.440Z,42.70
2023-01-26T06:45:01.145Z,42.20
2023-01-26T06:47:28.880Z,40.30
2023-01-26T06:49:56.632Z,41.60
2023-01-26T06:52:31.411Z,40.60
2023-01-26T06:55:24.304Z,41.00
2023-01-26T06:57:55.366Z,39.10
2023-01-26T07:00:52.319Z,40.20
2023-01-26T07:03:27.733Z,37.90
2023-01-26T07:05:55.491Z,38.10
2023-01-26T07:08:23.237Z,40.00
2023-01-26T07:10:50.928Z,37.40
2023-01-26T07:13:18.539Z,36.60
2023-01-26T07:15:46.216Z,36.90
2023-01-26T07:18:13.860Z,34.00
2023-01-26T07:20:41.643Z,35.10
2023-01-26T07:23:09.308Z,34.80
2023-01-26T07:25:37.005Z,35.60
2023-01-26T07:28:05.063Z,34.70
2023-01-26T07:30:32.759Z,34.90
2023-01-26T07:33:00.979Z,34.90
2023-01-26T07:35:29.884Z,34.00
2023-01-26T07:37:58.969Z,34.60
2023-01-26T07:40:26.643Z,33.60
2023-01-26T07:42:55.881Z,33.10
2023-01-26T07:45:46.118Z,32.20
2023-01-26T07:48:15.408Z,33.20
2023-01-26T07:50:45.218Z,33.10
2023-01-26T07:53:15.240Z,33.00
2023-01-26T07:55:46.009Z,33.50
2023-01-26T07:58:13.914Z,33.70
2023-01-26T08:00:41.591Z,34.10
2023-01-26T08:03:09.305Z,34.60
2023-01-26T08:05:38.508Z,35.20
2023-01-26T08:08:06.511Z,35.30
2023-01-26T08:10:34.219Z,34.80
2023-01-26T08:13:02.048Z,35.80
2023-01-26T08:15:30.126Z,36.20
2023-01-26T08:17:57.807Z,35.30
2023-01-26T08:20:25.478Z,35.80
2023-01-26T08:22:53.772Z,35.40
2023-01-26T08:25:21.480Z,36.70
2023-01-26T08:27:49.119Z,36.70
2023-01-26T08:30:17.371Z,34.30
2023-01-26T08:32:45.069Z,34.80
2023-01-26T08:35:13.027Z,35.30
2023-01-26T08:37:40.646Z,35.60
2023-01-26T08:40:09.197Z,35.50
2023-01-26T08:42:36.952Z,33.90
2023-01-26T08:45:04.939Z,33.10
2023-01-26T08:47:32.717Z,32.70
2023-01-26T08:50:00.336Z,33.40
2023-01-26T08:52:27.985Z,35.70
2023-01-26T08:54:55.608Z,35.80
2023-01-26T08:57:23.393Z,40.80
2023-01-26T08:59:51.003Z,36.60
2023-01-26T09:02:18.725Z,36.40
2023-01-26T09:04:46.537Z,36.40
2023-01-26T09:07:14.316Z,36.90
2023-01-26T09:09:42.038Z,35.30
2023-01-26T09:12:09.688Z,32.00
2023-01-26T09:14:37.307Z,32.60
2023-01-26T09:17:05.219Z,33.30
2023-01-26T09:19:33.049Z,36.10
2023-01-26T09:22:00.731Z,39.30
2023-01-26T09:24:28.381Z,35.50
2023-01-26T09:26:56.884Z,36.40
2023-01-26T09:29:24.657Z,34.20
2023-01-26T09:31:52.503Z,31.80
2023-01-26T09:34:20.175Z,31.90
2023-01-26T09:36:47.877Z,39.50
2023-01-26T09:39:15.675Z,32.50
2023-01-26T09:41:56.248Z,33.50
2023-01-26T09:44:25.685Z,32.40
2023-01-26T09:47:05.584Z,34.40
2023-01-26T09:49:58.283Z,34.30
2023-01-26T09:52:38.216Z,35.90
2023-01-26T09:55:15.497Z,33.70
2023-01-26T09:57:49.658Z,37.00
2023-01-26T10:00:20.724Z,33.50
2023-01-26T10:03:04.027Z,34.30
2023-01-26T10:05:49.259Z,31.50
2023-01-26T10:08:36.905Z,34.80
2023-01-26T10:11:11.588Z,33.10
2023-01-26T10:13:48.334Z,35.00
2023-01-26T10:16:16.466Z,32.20
2023-01-26T10:18:55.890Z,34.20
2023-01-26T10:21:25.897Z,32.10
2023-01-26T10:23:53.993Z,35.80
2023-01-26T10:26:23.377Z,32.50
2023-01-26T10:28:52.174Z,33.40
2023-01-26T10:31:25.796Z,36.40
2023-01-26T10:34:06.399Z,33.80
2023-01-26T10:36:33.998Z,33.10
2023-01-26T10:39:15.425Z,34.40
2023-01-26T10:42:18.093Z,31.50
2023-01-26T10:44:47.052Z,32.30
2023-01-26T10:47:20.451Z,30.70
2023-01-26T10:49:48.878Z,32.10
2023-01-26T10:52:18.905Z,31.90
2023-01-26T10:54:46.635Z,30.30
2023-01-26T10:57:18.668Z,31.40
2023-01-26T10:59:54.794Z,31.80
2023-01-26T11:02:27.045Z,37.40
2023-01-26T11:05:06.995Z,33.90
2023-01-26T11:07:36.024Z,32.60
2023-01-26T11:10:23.668Z,31.40
2023-01-26T11:12:56.560Z,33.20
2023-01-26T11:15:36.054Z,32.10
2023-01-26T11:18:10.926Z,30.70
2023-01-26T11:20:47.074Z,32.50
2023-01-26T11:23:33.396Z,30.40
2023-01-26T11:26:06.831Z,33.70
2023-01-26T11:28:40.979Z,31.10
2023-01-26T11:31:14.920Z,33.30
2023-01-26T11:33:50.296Z,33.40
2023-01-26T11:36:42.990Z,31.70
2023-01-26T11:39:15.032Z,30.50
2023-01-26T11:41:56.510Z,31.00
2023-01-26T11:44:59.600Z,31.70
2023-01-26T11:47:36.418Z,32.00
2023-01-26T11:50:10.250Z,31.50
2023-01-26T11:52:40.877Z,34.00
2023-01-26T11:55:14.934Z,31.00
2023-01-26T11:58:19.097Z,31.70
2023-01-26T12:00:51.691Z,30.60
2023-01-26T12:03:47.130Z,30.20
2023-01-26T12:06:20.913Z,31.50
2023-01-26T12:08:59.475Z,29.50
2023-01-26T12:11:43.010Z,29.30
2023-01-26T12:14:30.050Z,30.90
2023-01-26T12:17:20.820Z,30.40
2023-01-26T12:20:14.427Z,30.30
2023-01-26T12:22:47.088Z,31.80
2023-01-26T12:25:37.528Z,33.30
2023-01-26T12:28:22.006Z,33.60
2023-01-26T12:31:19.855Z,35.80
2023-01-26T12:33:52.197Z,32.70
2023-01-26T12:37:07.675Z,30.90
2023-01-26T12:40:12.765Z,31.20
2023-01-26T12:43:18.733Z,32.90
2023-01-26T12:45:49.355Z,32.10
2023-01-26T12:48:40.158Z,32.10
2023-01-26T12:51:38.547Z,30.50
2023-01-26T12:54:20.347Z,34.00
2023-01-26T12:56:54.080Z,31.80
2023-01-26T12:59:46.682Z,31.50
2023-01-26T13:02:28.043Z,32.00
2023-01-26T13:04:58.390Z,33.30
2023-01-26T13:07:31.391Z,30.10
2023-01-26T13:10:11.573Z,29.90
2023-01-26T13:13:10.347Z,30.80
2023-01-26T13:16:17.004Z,30.10
2023-01-26T13:18:49.922Z,30.00
2023-01-26T13:21:39.131Z,29.00
2023-01-26T13:24:19.020Z,29.90
2023-01-26T13:26:51.534Z,29.40
2023-01-26T13:29:25.488Z,29.00
2023-01-26T13:32:02.063Z,29.90
2023-01-26T13:34:34.694Z,27.60
2023-01-26T13:37:10.413Z,33.00
2023-01-26T13:39:40.554Z,28.30
2023-01-26T13:42:28.465Z,30.40
2023-01-26T13:45:03.417Z,28.10
2023-01-26T13:47:38.157Z,28.80
2023-01-26T13:50:23.661Z,29.00
2023-01-26T13:52:51.404Z,30.30
2023-01-26T13:55:24.820Z,28.60
2023-01-26T13:58:14.861Z,29.10
2023-01-26T14:00:43.129Z,28.40
2023-01-26T14:03:23.302Z,27.60
2023-01-26T14:05:53.243Z,28.50
2023-01-26T14:08:22.493Z,29.80
2023-01-26T14:10:51.291Z,30.20
2023-01-26T14:13:31.453Z,30.10
2023-01-26T14:16:00.844Z,27.90
2023-01-26T14:18:29.081Z,29.50
2023-01-26T14:21:05.548Z,31.60
2023-01-26T14:23:35.691Z,29.10
2023-01-26T14:26:06.363Z,31.60
2023-01-26T14:28:36.554Z,30.30
2023-01-26T14:31:16.987Z,28.10
2023-01-26T14:33:44.980Z,30.80
2023-01-26T14:36:16.260Z,30.50
2023-01-26T14:38:46.242Z,29.00
2023-01-26T14:41:21.719Z,27.70
2023-01-26T14:43:52.615Z,30.50
2023-01-26T14:46:28.792Z,31.40
2023-01-26T14:49:05.489Z,31.40
2023-01-26T14:51:35.292Z,29.70
2023-01-26T14:54:18.182Z,34.90
2023-01-26T14:56:47.283Z,38.20
2023-01-26T14:59:25.887Z,30.50
2023-01-26T15:02:03.702Z,30.50
2023-01-26T15:04:40.916Z,30.60
2023-01-26T15:07:22.030Z,31.30
2023-01-26T15:09:54.853Z,45.50
2023-01-26T15:12:22.957Z,40.80
2023-01-26T15:14:59.211Z,33.30
2023-01-26T15:17:41.408Z,31.40
2023-01-26T15:20:15.172Z,31.50
2023-01-26T15:22:49.191Z,36.80
2023-01-26T15:25:26.001Z,31.60
2023-01-26T15:27:58.654Z,36.70
2023-01-26T15:30:28.951Z,33.80
2023-01-26T15:32:57.664Z,32.60
2023-01-26T15:35:27.510Z,33.50
2023-01-26T15:38:03.258Z,37.60
2023-01-26T15:40:31.813Z,34.50
2023-01-26T15:43:12.617Z,36.80
2023-01-26T15:45:48.410Z,35.70
2023-01-26T15:48:16.063Z,34.80
2023-01-26T15:50:43.952Z,33.80
2023-01-26T15:53:13.675Z,34.90
2023-01-26T15:55:41.940Z,35.50
2023-01-26T15:58:09.735Z,36.00
2023-01-26T16:00:37.936Z,36.30
2023-01-26T16:03:12.825Z,34.60
2023-01-26T16:05:40.541Z,39.80
2023-01-26T16:08:09.281Z,34.00
2023-01-26T16:10:40.088Z,35.60
2023-01-26T16:13:12.419Z,34.60
2023-01-26T16:15:43.956Z,39.80
2023-01-26T16:18:12.083Z,33.40
2023-01-26T16:20:42.318Z,35.00
2023-01-26T16:23:17.788Z,33.90
2023-01-26T16:25:46.001Z,34.70
2023-01-26T16:28:13.908Z,35.10
2023-01-26T16:30:46.013Z,36.90
2023-01-26T16:33:16.670Z,36.50
2023-01-26T16:35:44.340Z,37.60
2023-01-26T16:38:13.333Z,38.80
2023-01-26T16:40:43.363Z,39.90
2023-01-26T16:43:18.799Z,37.30
2023-01-26T16:45:46.618Z,34.80
2023-01-26T16:48:15.855Z,34.90
2023-01-26T16:50:44.756Z,36.60
2023-01-26T16:53:26.550Z,36.40
2023-01-26T16:55:54.847Z,37.50
2023-01-26T16:58:26.105Z,36.00
2023-01-26T17:00:55.347Z,35.90
2023-01-26T17:03:23.897Z,37.40
2023-01-26T17:05:51.579Z,36.90
2023-01-26T17:08:19.240Z,37.80
2023-01-26T17:11:01.242Z,36.80
2023-01-26T17:13:31.540Z,39.50
2023-01-26T17:15:59.571Z,37.60
2023-01-26T17:18:27.304Z,38.30
2023-01-26T17:21:01.762Z,37.30
2023-01-26T17:23:29.539Z,37.00
2023-01-26T17:25:59.404Z,35.60
2023-01-26T17:28:27.332Z,38.00
2023-01-26T17:30:55.044Z,36.50
2023-01-26T17:33:22.764Z,37.60
2023-01-26T17:35:59.667Z,38.70
2023-01-26T17:38:27.439Z,36.80
2023-01-26T17:40:56.080Z,35.50
2023-01-26T17:43:24.580Z,36.40
2023-01-26T17:45:52.350Z,36.10
2023-01-26T17:48:20.016Z,36.40
2023-01-26T17:50:48.861Z,38.30
2023-01-26T17:53:16.743Z,38.10
2023-01-26T17:55:44.410Z,36.30
2023-01-26T17:58:12.085Z,38.10
2023-01-26T18:00:40.154Z,37.80
2023-01-26T18:03:08.757Z,36.40
2023-01-26T18:05:36.483Z,35.70
2023-01-26T18:08:04.206Z,35.60
2023-01-26T18:10:31.956Z,34.10
2023-01-26T18:12:59.567Z,32.80
2023-01-26T18:15:27.277Z,32.80
2023-01-26T18:17:54.968Z,32.00
2023-01-26T18:20:23.282Z,32.80
2023-01-26T18:22:50.870Z,35.10
2023-01-26T18:25:20.866Z,37.20
2023-01-26T18:27:48.600Z,35.00
2023-01-26T18:30:16.705Z,33.60
2023-01-26T18:32:44.560Z,34.30
2023-01-26T18:35:12.516Z,37.90
2023-01-26T18:37:40.428Z,44.50
2023-01-26T18:40:09.333Z,41.80
2023-01-26T18:42:37.023Z,47.00
2023-01-26T18:45:05.342Z,44.60
2023-01-26T18:47:33.024Z,46.00
2023-01-26T18:50:00.680Z,43.50
2023-01-26T18:52:30.779Z,46.00
2023-01-26T18:54:58.760Z,39.70
2023-01-26T18:57:26.443Z,41.30
2023-01-26T18:59:54.302Z,40.10
2023-01-26T19:02:21.968Z,44.10
2023-01-26T19:04:53.538Z,43.00
2023-01-26T19:07:21.300Z,44.80
2023-01-26T19:09:48.994Z,38.30
2023-01-26T19:12:16.907Z,41.10
2023-01-26T19:14:44.597Z,39.90
2023-01-26T19:17:12.604Z,44.10
2023-01-26T19:19:41.923Z,42.70
2023-01-26T19:22:10.701Z,43.40
2023-01-26T19:24:38.360Z,43.70
2023-01-26T19:27:06.325Z,43.40
2023-01-26T19:29:34.088Z,44.30
2023-01-26T19:32:01.833Z,46.90
2023-01-26T19:34:31.882Z,53.00
2023-01-26T19:36:59.670Z,47.70
2023-01-26T19:39:27.705Z,46.90
2023-01-26T19:41:55.387Z,46.70
2023-01-26T19:44:23.100Z,49.50
2023-01-26T19:46:51.787Z,49.30
2023-01-26T19:49:21.378Z,47.20
2023-01-26T19:51:49.178Z,43.10
2023-01-26T19:54:17.076Z,42.20
2023-01-26T19:56:45.015Z,42.20
2023-01-26T19:59:12.973Z,42.50
2023-01-26T20:01:40.783Z,42.90
2023-01-26T20:04:13.072Z,45.10
2023-01-26T20:06:40.771Z,45.20
2023-01-26T20:09:08.787Z,44.00
2023-01-26T20:11:36.542Z,41.70
2023-01-26T20:14:06.401Z,39.30
2023-01-26T20:16:35.165Z,39.50
2023-01-26T20:19:03.718Z,71.10
2023-01-26T20:21:31.762Z,54.40
2023-01-26T20:24:05.213Z,48.10
2023-01-26T20:26:34.905Z,46.70
2023-01-26T20:29:03.480Z,45.10
2023-01-26T20:31:32.879Z,49.70
2023-01-26T20:34:02.079Z,47.60
2023-01-26T20:36:30.701Z,46.80
2023-01-26T20:38:58.747Z,42.10
2023-01-26T20:41:28.905Z,39.90
2023-01-26T20:44:01.685Z,64.60
2023-01-26T20:46:33.132Z,51.20
2023-01-26T20:49:01.068Z,51.00
2023-01-26T20:51:33.480Z,44.00
2023-01-26T20:54:03.333Z,43.10
2023-01-26T20:56:31.072Z,42.60
2023-01-26T20:58:58.739Z,43.50
2023-01-26T21:01:26.611Z,60.80
2023-01-26T21:03:54.667Z,40.90
2023-01-26T21:06:24.164Z,42.50
2023-01-26T21:08:54.383Z,41.10
2023-01-26T21:11:24.428Z,41.60
2023-01-26T21:13:52.155Z,40.60
2023-01-26T21:16:19.923Z,48.00
2023-01-26T21:18:47.816Z,40.50
2023-01-26T21:21:19.024Z,40.40
2023-01-26T21:23:46.832Z,39.80
2023-01-26T21:26:21.845Z,40.50
2023-01-26T21:28:54.690Z,42.70
2023-01-26T21:31:25.231Z,41.10
2023-01-26T21:33:53.065Z,40.70
2023-01-26T21:36:23.332Z,40.60
2023-01-26T21:38:52.909Z,44.20
2023-01-26T21:41:50.079Z,45.10
2023-01-26T21:44:20.448Z,45.60
2023-01-26T21:46:50.271Z,48.20
2023-01-26T21:49:18.101Z,43.00
2023-01-26T21:52:04.772Z,42.00
2023-01-26T21:54:32.623Z,41.40
2023-01-26T21:57:00.800Z,43.40
2023-01-26T21:59:29.874Z,40.30
2023-01-26T22:01:58.577Z,40.30
2023-01-26T22:04:29.562Z,41.40
2023-01-26T22:06:57.888Z,39.80
2023-01-26T22:09:25.571Z,39.80
2023-01-26T22:11:53.230Z,40.90
2023-01-26T22:14:27.025Z,41.20
2023-01-26T22:16:54.715Z,42.50
2023-01-26T22:19:22.449Z,42.70
2023-01-26T22:21:50.135Z,43.40
2023-01-26T22:24:18.060Z,42.40
2023-01-26T22:26:45.949Z,43.90
2023-01-26T22:29:13.639Z,42.80
2023-01-26T22:31:41.940Z,43.00
2023-01-26T22:34:13.401Z,43.50
2023-01-26T22:36:41.337Z,44.80
2023-01-26T22:39:09.090Z,44.90
2023-01-26T22:41:37.686Z,45.40
2023-01-26T22:44:05.943Z,44.70
2023-01-26T22:46:33.622Z,46.00
2023-01-26T22:49:01.328Z,43.20
2023-01-26T22:51:30.870Z,45.00
2023-01-26T22:53:59.428Z,48.00
2023-01-26T22:56:27.563Z,48.90
2023-01-26T22:58:59.503Z,48.60
2023-01-26T23:01:29.606Z,48.40
2023-01-26T23:03:58.166Z,48.10
2023-01-26T23:06:26.389Z,47.90
2023-01-26T23:08:54.444Z,48.20
2023-01-26T23:11:25.070Z,46.70
2023-01-26T23:13:54.053Z,46.20
2023-01-26T23:16:23.691Z,47.00
2023-01-26T23:18:53.326Z,47.00
2023-01-26T23:21:21.354Z,45.70
2023-01-26T23:23:49.165Z,45.30
2023-01-26T23:26:17.000Z,45.30
2023-01-26T23:28:45.201Z,45.80
2023-01-26T23:31:14.845Z,46.00
2023-01-26T23:33:43.254Z,45.70
2023-01-26T23:36:12.716Z,44.80
2023-01-26T23:38:40.686Z,46.20
2023-01-26T23:41:11.927Z,45.50
2023-01-26T23:43:40.040Z,44.60
2023-01-26T23:46:08.680Z,46.90
2023-01-26T23:48:36.892Z,46.00
2023-01-26T23:51:07.260Z,46.30
2023-01-26T23:53:35.250Z,45.90
2023-01-26T23:56:06.438Z,44.60
2023-01-26T23:58:34.070Z,46.20
